Time;durP1;ratioP1;P1;durP2;ratioP2;P2;SDS_P1;SDS_P2;PMS_P1;PMS_P2;Temp;Humidity;BMP_temperature;BMP_pressure;BME280_temperature;BME280_humidity;BME280_pressure;Samples;Min_cycle;Max_cycle;Signal;HPM_P1;HPM_P2
2022/01/02 00:01:46;;;;;;;2.70;1.85;;;;;;;21.61;42.60;101591.13;5053143;28;20037;-66
2022/01/02 00:04:20;;;;;;;3.53;2.10;;;;;;;21.61;42.69;101580.50;5056918;28;20509;-65
2022/01/02 00:06:49;;;;;;;3.03;2.10;;;;;;;21.60;42.71;101568.25;5054670;28;20198;-66
2022/01/02 00:09:36;;;;;;;3.15;2.38;;;;;;;21.60;42.62;101573.56;5054663;28;20063;-66
2022/01/02 00:12:12;;;;;;;2.85;2.25;;;;;;;21.60;42.86;101580.69;5056402;28;20029;-66
2022/01/02 00:14:42;;;;;;;3.28;2.30;;;;;;;21.56;42.76;101576.75;5056168;28;20670;-66
2022/01/02 00:17:09;;;;;;;3.40;2.40;;;;;;;21.62;42.70;101582.16;5057296;28;20049;-66
2022/01/02 00:19:38;;;;;;;2.85;2.05;;;;;;;21.57;42.96;101570.44;5039716;28;20407;-66
2022/01/02 00:22:13;;;;;;;3.03;2.40;;;;;;;21.48;43.04;101543.13;5054877;28;20121;-66
2022/01/02 00:24:41;;;;;;;3.42;2.30;;;;;;;21.47;42.82;101556.56;5054833;28;20042;-66
2022/01/02 00:27:08;;;;;;;3.92;2.53;;;;;;;21.46;42.95;101557.56;5054458;28;20037;-66
2022/01/02 00:29:37;;;;;;;2.67;2.20;;;;;;;21.44;42.85;101557.75;5056063;28;20052;-66
2022/01/02 00:32:06;;;;;;;3.70;2.42;;;;;;;21.43;42.79;101556.09;5054091;28;20043;-65
2022/01/02 00:34:34;;;;;;;2.85;2.38;;;;;;;21.48;42.71;101552.91;5056274;28;20033;-66
2022/01/02 00:37:00;;;;;;;3.53;2.30;;;;;;;21.49;42.99;101551.91;5058885;28;20041;-66
2022/01/02 00:39:25;;;;;;;4.63;2.65;;;;;;;21.51;42.61;101539.31;5052834;28;20043;-66
2022/01/02 00:41:56;;;;;;;3.20;2.33;;;;;;;21.44;43.02;101531.25;5054719;28;20051;-66
2022/01/02 00:44:32;;;;;;;2.78;2.13;;;;;;;21.34;43.10;101504.13;5033792;28;20055;-66
2022/01/02 00:47:25;;;;;;;3.55;2.63;;;;;;;21.42;42.97;101523.47;5053036;28;20040;-66
2022/01/02 00:50:03;;;;;;;4.57;2.22;;;;;;;21.43;42.77;101532.25;5049821;28;20055;-66
2022/01/02 00:52:29;;;;;;;4.60;2.45;;;;;;;21.31;43.41;101536.25;5052627;28;20036;-66
2022/01/02 00:54:56;;;;;;;3.55;2.30;;;;;;;21.25;43.41;101531.66;5039268;28;20044;-66
2022/01/02 00:57:35;;;;;;;4.28;2.50;;;;;;;21.25;43.00;101529.00;5038435;28;20028;-66
2022/01/02 01:00:04;;;;;;;2.85;2.10;;;;;;;21.29;43.10;101533.78;5043413;28;20039;-66
2022/01/02 01:02:37;;;;;;;3.30;2.30;;;;;;;21.32;43.15;101533.44;5038557;28;20040;-66
2022/01/02 01:05:06;;;;;;;3.53;2.35;;;;;;;21.23;43.29;101530.97;5054848;28;20043;-66
2022/01/02 01:07:32;;;;;;;4.53;2.88;;;;;;;21.21;43.24;101539.09;5050062;28;20036;-66
2022/01/02 01:09:58;;;;;;;2.67;2.20;;;;;;;21.17;43.47;101536.94;5036320;28;20024;-66
2022/01/02 01:12:25;;;;;;;2.85;2.20;;;;;;;21.24;43.12;101532.63;5036512;28;20040;-66
2022/01/02 01:14:52;;;;;;;2.80;2.25;;;;;;;21.15;43.30;101533.66;5038022;28;20622;-66
2022/01/02 01:17:17;;;;;;;2.97;2.22;;;;;;;21.20;43.29;101541.94;5035624;28;20037;-66
2022/01/02 01:19:44;;;;;;;3.47;2.42;;;;;;;21.14;43.51;101548.72;5036445;28;20130;-66
2022/01/02 01:22:11;;;;;;;2.63;2.17;;;;;;;21.19;43.34;101549.03;5056194;28;20039;-66
2022/01/02 01:24:37;;;;;;;2.55;2.00;;;;;;;21.20;43.07;101537.44;5055473;28;20414;-66
2022/01/02 01:27:06;;;;;;;3.45;2.25;;;;;;;21.17;43.39;101539.59;5054168;28;20059;-66
2022/01/02 01:29:34;;;;;;;3.28;2.22;;;;;;;21.09;43.44;101545.75;5034348;28;20088;-66
2022/01/02 01:32:04;;;;;;;3.00;2.25;;;;;;;21.25;43.13;101543.09;5052808;28;20025;-66
2022/01/02 01:34:30;;;;;;;3.00;2.40;;;;;;;21.10;43.45;101539.47;5052653;28;20135;-66
2022/01/02 01:36:56;;;;;;;4.10;2.67;;;;;;;21.06;43.36;101544.28;5050896;28;20110;-66
2022/01/02 01:39:21;;;;;;;3.08;2.10;;;;;;;21.05;43.35;101542.63;5052196;28;20044;-66
2022/01/02 01:41:48;;;;;;;4.80;2.47;;;;;;;21.08;43.16;101536.16;5033005;28;20047;-66
2022/01/02 01:46:41;;;;;;;4.55;2.35;;;;;;;21.18;43.12;101523.53;5035470;28;20428;-66
2022/01/02 01:49:19;;;;;;;3.78;2.42;;;;;;;21.19;43.27;101522.56;5036229;28;20097;-66
2022/01/02 01:51:45;;;;;;;2.88;2.20;;;;;;;21.04;43.41;101498.63;5028902;28;20033;-65
2022/01/02 01:54:11;;;;;;;3.40;2.47;;;;;;;21.05;43.54;101488.84;5037033;28;20103;-66
2022/01/02 01:56:38;;;;;;;4.85;2.60;;;;;;;21.10;43.39;101482.03;5051071;28;20040;-66
2022/01/02 01:59:04;;;;;;;3.13;2.30;;;;;;;21.09;43.21;101496.25;5034411;28;20171;-66
2022/01/02 02:01:30;;;;;;;2.83;2.22;;;;;;;21.07;43.53;101503.56;5034868;28;20074;-66
2022/01/02 02:03:57;;;;;;;3.08;2.35;;;;;;;21.05;43.43;101497.63;5031602;28;20029;-66
2022/01/02 02:06:23;;;;;;;3.10;2.47;;;;;;;21.05;43.49;101486.19;5049615;28;20093;-66
2022/01/02 02:08:52;;;;;;;4.13;2.58;;;;;;;21.00;43.61;101493.81;5036226;28;20828;-66
2022/01/02 02:11:20;;;;;;;3.00;2.20;;;;;;;21.13;43.44;101489.63;5034664;28;20529;-66
2022/01/02 02:13:47;;;;;;;3.92;2.55;;;;;;;21.11;43.30;101474.91;5041054;28;20493;-66
2022/01/02 02:16:12;;;;;;;3.58;2.55;;;;;;;21.03;43.38;101483.72;5048589;28;20032;-66
2022/01/02 02:18:38;;;;;;;3.22;2.40;;;;;;;21.00;43.69;101478.75;5038330;28;20041;-66
2022/01/02 02:21:04;;;;;;;4.93;2.60;;;;;;;20.98;43.40;101472.78;5053200;28;20500;-66
2022/01/02 02:23:31;;;;;;;3.35;2.40;;;;;;;20.92;43.81;101473.50;5033352;28;20639;-66
2022/01/02 02:25:57;;;;;;;5.07;2.50;;;;;;;20.98;43.85;101464.84;5035919;28;20045;-66
2022/01/02 02:28:27;;;;;;;3.63;2.38;;;;;;;20.96;43.32;101458.09;5038280;28;20036;-66
2022/01/02 02:30:54;;;;;;;4.93;2.47;;;;;;;20.93;43.66;101455.78;5044428;28;20053;-66
2022/01/02 02:33:20;;;;;;;3.15;2.40;;;;;;;20.98;43.54;101451.63;5038192;28;21055;-66
2022/01/02 02:35:48;;;;;;;3.45;2.67;;;;;;;21.00;43.37;101449.63;5043030;28;20509;-65
2022/01/02 02:38:17;;;;;;;4.03;2.42;;;;;;;21.03;43.22;101438.72;5044170;28;20024;-65
2022/01/02 02:40:44;;;;;;;3.58;2.45;;;;;;;20.85;43.64;101426.72;5035415;28;20048;-66
2022/01/02 02:51:31;;;;;;;4.47;2.50;;;;;;;20.90;43.80;101416.44;5037511;28;20655;-66
2022/01/02 02:53:57;;;;;;;4.18;2.53;;;;;;;20.84;43.67;101410.00;5054182;28;20124;-66
2022/01/02 02:59:08;;;;;;;3.83;2.60;;;;;;;20.96;43.58;101394.53;5039399;28;20041;-66
2022/01/02 03:01:34;;;;;;;4.70;2.65;;;;;;;20.91;43.53;101400.38;5044916;28;20029;-66
2022/01/02 03:04:00;;;;;;;4.60;3.17;;;;;;;20.92;43.41;101393.25;5039470;28;20351;-66
2022/01/02 03:06:25;;;;;;;3.55;2.53;;;;;;;20.93;43.37;101386.94;5056202;28;20032;-66
2022/01/02 03:08:52;;;;;;;2.80;2.40;;;;;;;20.93;43.29;101379.00;5052675;28;20041;-66
2022/01/02 03:11:21;;;;;;;2.67;2.20;;;;;;;20.94;43.46;101370.06;5036821;28;20029;-66
2022/01/02 03:13:49;;;;;;;3.92;2.78;;;;;;;20.85;43.65;101365.81;5039212;28;20421;-66
2022/01/02 03:16:16;;;;;;;4.68;2.60;;;;;;;20.98;43.36;101358.94;5041881;28;20059;-66
2022/01/02 03:18:41;;;;;;;4.97;2.70;;;;;;;20.91;43.37;101350.06;5055159;28;20037;-66
2022/01/02 03:21:09;;;;;;;3.30;2.50;;;;;;;20.93;43.50;101350.72;5041751;28;20131;-66
2022/01/02 03:23:34;;;;;;;4.78;2.50;;;;;;;20.93;43.49;101344.59;5057931;28;20041;-66
2022/01/02 03:26:00;;;;;;;2.50;2.20;;;;;;;20.86;43.42;101338.34;5058202;28;20090;-66
2022/01/02 03:28:26;;;;;;;3.65;2.40;;;;;;;20.81;43.74;101339.69;5042592;28;20391;-66
2022/01/02 03:30:52;;;;;;;3.13;2.35;;;;;;;20.79;43.87;101340.84;5038677;28;20081;-66
2022/01/02 03:33:17;;;;;;;4.40;2.38;;;;;;;20.81;43.47;101337.03;5056849;28;20043;-66
2022/01/02 03:35:43;;;;;;;3.60;2.53;;;;;;;20.85;43.29;101334.06;5053781;28;20071;-66
2022/01/02 03:38:09;;;;;;;3.42;2.30;;;;;;;20.40;43.67;101261.47;5042627;28;20032;-66
2022/01/02 03:40:35;;;;;;;3.95;2.63;;;;;;;20.77;43.76;101329.63;5051666;28;20121;-66
2022/01/02 03:43:02;;;;;;;2.72;2.30;;;;;;;20.79;43.51;101317.84;5053493;28;20036;-66
2022/01/02 03:45:28;;;;;;;3.70;2.60;;;;;;;20.59;43.93;101294.66;5043993;28;20128;-66
2022/01/02 03:47:54;;;;;;;5.43;2.60;;;;;;;20.75;43.73;101308.63;5040510;28;20083;-66
2022/01/02 03:50:20;;;;;;;2.25;2.00;;;;;;;20.84;43.57;101300.66;5051857;28;20041;-65
2022/01/02 03:52:45;;;;;;;3.05;2.45;;;;;;;20.81;43.51;101286.75;5045700;28;20476;-66
2022/01/02 03:55:11;;;;;;;3.08;2.28;;;;;;;20.80;43.64;101279.81;5039566;28;20638;-66
2022/01/02 03:57:37;;;;;;;4.45;2.67;;;;;;;20.84;43.52;101282.13;5036843;28;20071;-65
2022/01/02 04:00:12;;;;;;;3.30;2.50;;;;;;;20.79;43.48;101288.75;5042677;28;20640;-66
2022/01/02 04:02:41;;;;;;;5.82;2.65;;;;;;;20.78;43.49;101287.09;5059260;28;20118;-66
2022/01/02 04:05:10;;;;;;;3.88;2.67;;;;;;;20.75;43.73;101295.38;5040888;28;20034;-66
2022/01/02 04:07:36;;;;;;;5.57;2.88;;;;;;;20.68;43.87;101291.81;5050781;28;20108;-66
2022/01/02 04:10:08;;;;;;;3.58;2.47;;;;;;;20.77;43.57;101288.09;5056480;28;20459;-66
2022/01/02 04:12:34;;;;;;;4.40;2.47;;;;;;;20.77;43.43;101271.41;5035203;28;20045;-66
2022/01/02 04:15:02;;;;;;;3.88;2.20;;;;;;;20.75;43.56;101287.44;5042988;28;20036;-66
2022/01/02 04:17:28;;;;;;;3.42;2.53;;;;;;;20.63;43.64;101272.97;5057955;28;20063;-66
2022/01/02 04:19:54;;;;;;;4.65;3.10;;;;;;;20.66;43.57;101248.00;5043633;28;20536;-66
2022/01/02 04:22:20;;;;;;;4.47;2.72;;;;;;;20.74;43.54;101267.28;5041196;28;20051;-66
2022/01/02 04:24:46;;;;;;;5.75;2.47;;;;;;;20.78;43.63;101263.28;5053339;28;20033;-66
2022/01/02 04:27:12;;;;;;;2.88;2.25;;;;;;;20.68;43.63;101251.28;5053291;28;20513;-65
2022/01/02 04:29:37;;;;;;;4.28;2.60;;;;;;;20.72;43.67;101252.56;5053365;28;20333;-66
2022/01/02 04:32:03;;;;;;;3.25;2.47;;;;;;;20.72;43.81;101247.28;5052368;28;20613;-65
2022/01/02 04:34:29;;;;;;;3.85;2.60;;;;;;;20.75;43.55;101244.28;5023826;28;20058;-66
2022/01/02 04:36:56;;;;;;;3.08;2.13;;;;;;;20.73;43.69;101248.94;5040855;28;20065;-66
2022/01/02 04:39:21;;;;;;;4.53;2.72;;;;;;;20.75;43.70;101241.63;5052673;28;20036;-64
2022/01/02 04:41:47;;;;;;;3.40;2.63;;;;;;;20.69;43.64;101245.81;5051718;28;20044;-65
2022/01/02 04:44:13;;;;;;;3.90;2.65;;;;;;;20.68;43.73;101236.22;5038406;28;20309;-66
2022/01/02 04:46:38;;;;;;;4.03;2.55;;;;;;;20.50;44.03;101227.75;5040314;28;20033;-65
2022/01/02 04:49:05;;;;;;;3.58;2.50;;;;;;;20.66;43.84;101240.06;5037378;28;20178;-66
2022/01/02 04:51:30;;;;;;;3.97;2.72;;;;;;;20.69;43.73;101237.88;5038876;28;20044;-66
2022/01/02 04:53:57;;;;;;;4.15;2.50;;;;;;;20.84;43.63;101223.88;5055420;28;20067;-65
2022/01/02 04:56:23;;;;;;;5.22;2.83;;;;;;;20.82;43.34;101216.09;5040338;28;20106;-66
2022/01/02 04:58:49;;;;;;;2.45;2.25;;;;;;;20.85;43.49;101215.78;5041063;28;20581;-66
2022/01/02 05:01:16;;;;;;;3.08;2.55;;;;;;;20.90;43.33;101210.75;5039675;28;20056;-65
2022/01/02 05:03:42;;;;;;;6.07;2.42;;;;;;;20.98;43.13;101210.69;5037890;28;20510;-66
2022/01/02 05:06:10;;;;;;;5.05;2.63;;;;;;;21.11;42.98;101204.78;5036822;28;20570;-66
2022/01/02 05:08:36;;;;;;;3.72;2.25;;;;;;;21.30;42.55;101200.84;5036069;28;20079;-66
2022/01/02 05:11:03;;;;;;;3.30;2.40;;;;;;;21.32;42.65;101206.78;5034038;28;20462;-65
2022/01/02 05:13:29;;;;;;;4.45;3.05;;;;;;;21.50;42.51;101209.91;5054115;28;20036;-66
2022/01/02 05:15:54;;;;;;;4.07;2.38;;;;;;;21.53;42.70;101191.00;5056517;28;20029;-66
2022/01/02 05:18:22;;;;;;;4.20;2.58;;;;;;;21.64;42.58;101195.84;5033703;28;20178;-66
2022/01/02 05:20:47;;;;;;;3.60;2.58;;;;;;;21.79;42.00;101184.44;5034673;28;20036;-66
2022/01/02 05:23:14;;;;;;;4.53;2.58;;;;;;;21.87;42.08;101182.50;5033928;28;20037;-66
2022/01/02 05:25:40;;;;;;;3.53;2.22;;;;;;;21.94;41.93;101193.19;5036774;28;20096;-66
2022/01/02 05:28:06;;;;;;;3.03;2.17;;;;;;;21.97;42.00;101175.09;5035560;28;20042;-66
2022/01/02 05:30:32;;;;;;;4.13;2.45;;;;;;;22.13;41.63;101174.09;5029594;28;20084;-66
2022/01/02 05:32:57;;;;;;;5.00;2.42;;;;;;;22.08;41.71;101178.28;5037546;28;20478;-65
2022/01/02 05:35:23;;;;;;;3.88;2.30;;;;;;;22.04;42.13;101159.25;5033372;28;20033;-66
2022/01/02 05:37:49;;;;;;;3.60;2.40;;;;;;;21.99;41.94;101157.16;5055948;28;20040;-66
2022/01/02 05:40:14;;;;;;;3.35;2.08;;;;;;;21.95;42.17;101137.31;5053035;28;20029;-66
2022/01/02 05:42:40;;;;;;;2.90;2.20;;;;;;;21.94;42.40;101156.91;5036327;28;20039;-66
2022/01/02 05:45:09;;;;;;;2.75;2.30;;;;;;;21.96;41.97;101146.94;5035269;28;20535;-64
2022/01/02 05:47:38;;;;;;;2.73;2.20;;;;;;;21.97;42.06;101151.22;5037249;28;20226;-66
2022/01/02 05:50:05;;;;;;;4.60;2.30;;;;;;;21.91;42.14;101138.72;5050861;28;20477;-66
2022/01/02 05:52:31;;;;;;;3.75;2.47;;;;;;;21.90;42.50;101142.38;5049251;28;21973;-66
2022/01/02 05:54:57;;;;;;;3.88;2.58;;;;;;;21.82;42.83;101128.38;5051448;28;20036;-66
2022/01/02 05:57:23;;;;;;;3.47;2.55;;;;;;;21.80;42.78;101127.75;5052964;28;20067;-65
2022/01/02 05:59:49;;;;;;;3.25;2.65;;;;;;;21.77;42.74;101117.53;5038982;28;20394;-65
2022/01/02 06:02:14;;;;;;;4.05;2.30;;;;;;;21.80;42.49;101114.50;5037496;28;20179;-65
2022/01/02 06:04:40;;;;;;;4.32;2.65;;;;;;;21.77;42.48;101101.63;5038892;28;20072;-65
2022/01/02 06:07:06;;;;;;;4.43;2.45;;;;;;;21.88;42.27;101119.69;5056936;28;20025;-65
2022/01/02 06:09:32;;;;;;;3.13;2.20;;;;;;;21.75;42.50;101104.47;5059275;28;20043;-65
2022/01/02 06:11:59;;;;;;;4.00;2.50;;;;;;;21.82;42.62;101107.19;5042703;28;20498;-66
2022/01/02 06:14:24;;;;;;;3.10;1.98;;;;;;;21.85;42.26;101081.13;5062261;28;20055;-65
2022/01/02 06:16:50;;;;;;;2.88;2.22;;;;;;;21.88;42.53;101090.53;5038961;28;20040;-65
2022/01/02 06:19:16;;;;;;;2.83;2.08;;;;;;;21.79;42.49;101091.66;5042976;28;20040;-66
2022/01/02 06:21:42;;;;;;;4.40;2.30;;;;;;;21.79;42.38;101086.34;5040949;28;20040;-66
2022/01/02 06:24:07;;;;;;;3.70;2.30;;;;;;;21.84;42.67;101086.59;5058912;28;20057;-66
2022/01/02 06:26:33;;;;;;;3.58;2.45;;;;;;;21.90;42.07;101073.44;5035563;28;20033;-66
2022/01/02 06:29:02;;;;;;;3.17;1.95;;;;;;;22.03;42.13;101060.31;5061446;28;20036;-66
2022/01/02 06:31:32;;;;;;;2.63;2.40;;;;;;;22.06;42.08;101058.31;5036839;28;20140;-66
2022/01/02 06:33:57;;;;;;;3.67;2.20;;;;;;;22.02;42.15;101057.84;5040930;28;20033;-66
2022/01/02 06:36:23;;;;;;;5.55;2.65;;;;;;;22.00;42.22;101055.38;5041368;28;20783;-66
2022/01/02 06:38:49;;;;;;;3.10;2.20;;;;;;;22.03;41.97;101046.22;5037732;28;20042;-65
2022/01/02 06:41:16;;;;;;;1.98;1.80;;;;;;;22.10;41.71;101039.19;5036826;28;20025;-66
2022/01/02 06:43:43;;;;;;;4.82;2.58;;;;;;;22.17;41.56;101032.13;5041915;28;20127;-66
2022/01/02 06:46:09;;;;;;;4.22;2.58;;;;;;;22.07;41.92;101030.78;5056468;28;20041;-65
2022/01/02 06:48:35;;;;;;;3.50;2.13;;;;;;;22.10;42.15;101014.50;5039215;28;20426;-66
2022/01/02 06:51:02;;;;;;;2.88;2.15;;;;;;;22.12;42.00;100997.41;5036245;28;20135;-65
2022/01/02 06:53:27;;;;;;;2.92;2.20;;;;;;;22.13;42.08;100996.38;5034237;28;20100;-66
2022/01/02 06:55:53;;;;;;;3.15;2.25;;;;;;;22.08;41.88;100992.63;5034352;28;20037;-66
2022/01/02 06:58:19;;;;;;;3.53;2.15;;;;;;;22.12;41.96;100978.00;5021262;28;20119;-65
2022/01/02 07:00:44;;;;;;;3.17;2.42;;;;;;;22.06;42.08;100976.91;5037306;28;20041;-65
2022/01/02 07:03:10;;;;;;;4.03;2.08;;;;;;;22.03;42.47;100971.97;5034303;28;20040;-66
2022/01/02 07:05:36;;;;;;;2.88;1.95;;;;;;;22.00;42.28;100964.41;5038513;28;20047;-65
2022/01/02 07:08:02;;;;;;;3.60;2.25;;;;;;;22.02;42.20;100957.06;5035185;28;20037;-66
2022/01/02 07:10:30;;;;;;;3.42;2.13;;;;;;;21.94;42.25;100958.03;5038433;28;20660;-65
2022/01/02 07:12:55;;;;;;;3.33;2.00;;;;;;;21.98;42.22;100954.00;5037423;28;20051;-66
2022/01/02 07:15:21;;;;;;;3.60;2.10;;;;;;;21.99;42.50;100942.38;5039398;28;20402;-66
2022/01/02 07:17:46;;;;;;;3.45;2.45;;;;;;;21.99;42.04;100945.03;5038165;28;20060;-66
2022/01/02 07:20:12;;;;;;;4.32;2.28;;;;;;;22.00;42.22;100943.19;5036749;28;20036;-66
2022/01/02 07:22:40;;;;;;;3.28;2.03;;;;;;;21.98;42.32;100937.25;5036668;28;20075;-65
2022/01/02 07:25:07;;;;;;;3.50;2.35;;;;;;;22.00;42.17;100917.50;5039295;28;20044;-65
2022/01/02 07:27:32;;;;;;;4.20;2.30;;;;;;;21.96;42.31;100932.16;5036652;28;20664;-66
2022/01/02 07:29:59;;;;;;;3.42;2.47;;;;;;;22.03;42.02;100916.28;5045997;28;20081;-65
2022/01/02 07:32:24;;;;;;;3.33;1.90;;;;;;;22.14;41.82;100901.72;5056271;28;20101;-65
2022/01/02 07:34:50;;;;;;;3.20;2.45;;;;;;;22.06;42.17;100897.38;5053840;28;20054;-66
2022/01/02 07:37:16;;;;;;;2.42;1.90;;;;;;;22.00;42.24;100911.38;5053265;28;20033;-65
2022/01/02 07:39:41;;;;;;;2.65;2.00;;;;;;;21.95;42.23;100890.75;5058854;28;20049;-65
2022/01/02 07:42:07;;;;;;;3.50;2.40;;;;;;;22.06;42.00;100900.00;5053671;28;20392;-65
2022/01/02 07:44:38;;;;;;;2.78;2.05;;;;;;;22.03;42.39;100890.59;5043538;28;20036;-65
2022/01/02 07:47:05;;;;;;;3.92;2.33;;;;;;;22.02;42.14;100894.25;5054510;28;20044;-65
2022/01/02 07:49:30;;;;;;;2.83;2.10;;;;;;;22.01;42.50;100897.09;5034610;28;20041;-65
2022/01/02 07:51:56;;;;;;;4.45;2.15;;;;;;;21.98;42.21;100881.59;5056490;28;20372;-65
2022/01/02 07:54:22;;;;;;;3.40;2.33;;;;;;;21.96;42.56;100888.91;5055662;28;20101;-65
2022/01/02 07:56:47;;;;;;;3.60;2.10;;;;;;;21.93;42.76;100886.66;5054866;28;20123;-65
2022/01/02 07:59:13;;;;;;;3.45;2.40;;;;;;;21.97;42.36;100895.84;5055677;28;20037;-65
2022/01/02 08:01:38;;;;;;;3.33;2.25;;;;;;;21.95;42.49;100889.94;5055536;28;20037;-65
2022/01/02 08:04:04;;;;;;;6.15;2.25;;;;;;;21.83;42.72;100889.63;5057753;28;20106;-65
2022/01/02 08:06:29;;;;;;;3.60;2.10;;;;;;;21.83;42.71;100886.97;5052956;28;20052;-65
2022/01/02 08:08:55;;;;;;;3.13;2.00;;;;;;;21.92;42.39;100879.72;5051089;28;20025;-65
2022/01/02 08:11:20;;;;;;;3.42;2.33;;;;;;;21.92;42.39;100871.75;5040416;28;21008;-65
2022/01/02 08:13:46;;;;;;;3.30;1.90;;;;;;;21.80;42.84;100873.28;5059655;28;20104;-66
2022/01/02 08:16:12;;;;;;;2.63;1.90;;;;;;;21.78;42.62;100875.31;5056302;28;20072;-65
2022/01/02 08:18:39;;;;;;;3.47;1.92;;;;;;;21.85;42.93;100878.81;5054776;28;20402;-65
2022/01/02 08:21:05;;;;;;;3.42;2.15;;;;;;;21.90;42.62;100882.56;5054282;28;20041;-65
2022/01/02 08:23:30;;;;;;;3.72;2.08;;;;;;;21.96;42.19;100875.66;5053830;28;20029;-65
2022/01/02 08:25:56;;;;;;;3.97;2.03;;;;;;;21.95;42.24;100889.94;5054915;28;20048;-65
2022/01/02 08:28:21;;;;;;;3.20;2.08;;;;;;;22.09;42.09;100882.94;5052195;28;20113;-65
2022/01/02 08:30:47;;;;;;;3.88;2.28;;;;;;;22.07;42.26;100884.94;5053257;28;20060;-65
2022/01/02 08:33:14;;;;;;;5.30;2.25;;;;;;;22.23;41.94;100890.75;5056761;28;20708;-65
2022/01/02 08:35:41;;;;;;;2.90;2.28;;;;;;;22.14;41.93;100893.75;5053800;28;20031;-65
2022/01/02 08:38:06;;;;;;;4.03;2.22;;;;;;;22.08;42.17;100892.69;5054638;28;20041;-65
2022/01/02 08:40:32;;;;;;;3.25;2.30;;;;;;;22.06;42.45;100885.94;5055073;28;20379;-65
2022/01/02 08:42:58;;;;;;;2.75;2.38;;;;;;;21.99;42.57;100885.88;5054158;28;20041;-65
2022/01/02 08:45:23;;;;;;;3.45;2.05;;;;;;;22.06;42.33;100896.53;5059348;28;20478;-65
2022/01/02 08:47:49;;;;;;;2.97;2.03;;;;;;;22.13;42.09;100889.47;5053282;28;20064;-64
2022/01/02 08:50:15;;;;;;;2.10;1.90;;;;;;;22.12;42.28;100887.84;5056465;28;20455;-64
2022/01/02 08:52:40;;;;;;;4.70;2.67;;;;;;;21.98;42.16;100887.69;5052621;28;20082;-64
2022/01/02 08:55:06;;;;;;;4.30;1.95;;;;;;;21.96;42.24;100887.06;5057096;28;20045;-64
2022/01/02 08:57:32;;;;;;;3.70;2.10;;;;;;;21.55;42.58;100827.81;5052854;28;20060;-65
2022/01/02 08:59:57;;;;;;;3.08;2.38;;;;;;;21.97;42.48;100885.25;5037640;28;20036;-64
2022/01/02 09:02:23;;;;;;;5.15;2.63;;;;;;;21.89;42.48;100893.31;5055978;28;20049;-64
2022/01/02 09:04:48;;;;;;;3.70;2.25;;;;;;;21.85;42.70;100881.47;5056965;28;20064;-64
2022/01/02 09:07:14;;;;;;;3.85;2.17;;;;;;;21.78;43.11;100884.06;5024675;28;20044;-65
2022/01/02 09:09:40;;;;;;;2.22;1.80;;;;;;;21.79;42.97;100876.94;5052777;28;20029;-65
2022/01/02 09:12:07;;;;;;;3.33;2.10;;;;;;;21.89;42.36;100877.41;5054854;28;20056;-64
2022/01/02 09:14:33;;;;;;;2.85;2.00;;;;;;;21.89;42.44;100875.59;5057917;28;20703;-64
2022/01/02 09:16:58;;;;;;;3.90;2.40;;;;;;;21.96;42.32;100867.69;5036547;28;20037;-64
2022/01/02 09:19:24;;;;;;;2.55;2.10;;;;;;;22.03;42.47;100874.69;5051209;28;20044;-64
2022/01/02 09:21:50;;;;;;;4.78;2.30;;;;;;;22.08;42.19;100879.44;5051900;28;20051;-64
2022/01/02 09:24:15;;;;;;;2.28;2.00;;;;;;;21.98;42.41;100863.03;5061176;28;20075;-64
2022/01/02 09:26:41;;;;;;;2.25;1.90;;;;;;;22.07;41.99;100867.19;5055854;28;20051;-64
2022/01/02 09:29:07;;;;;;;3.03;2.22;;;;;;;22.13;41.93;100861.13;5048897;28;20048;-64
2022/01/02 09:31:32;;;;;;;4.38;2.60;;;;;;;22.07;42.08;100848.63;5054747;28;20052;-65
2022/01/02 09:33:58;;;;;;;4.15;2.15;;;;;;;22.09;41.88;100851.09;5051922;28;20107;-64
2022/01/02 09:36:23;;;;;;;4.22;2.28;;;;;;;22.10;42.03;100860.69;5057823;28;20736;-65
2022/01/02 09:38:50;;;;;;;3.83;2.70;;;;;;;22.03;42.20;100850.81;5041848;28;20056;-64
2022/01/02 09:41:19;;;;;;;4.45;2.05;;;;;;;22.02;42.17;100845.69;5064583;28;20034;-64
2022/01/02 09:43:47;;;;;;;3.75;2.08;;;;;;;21.91;42.57;100846.25;5066826;28;20044;-64
2022/01/02 09:46:16;;;;;;;2.90;1.95;;;;;;;21.96;42.09;100836.69;5062749;28;20099;-65
2022/01/02 09:48:44;;;;;;;2.83;2.05;;;;;;;21.71;42.33;100809.78;5059062;28;20029;-64
2022/01/02 09:51:09;;;;;;;3.17;1.98;;;;;;;21.87;42.75;100840.50;5058857;28;20037;-64
2022/01/02 09:53:35;;;;;;;3.05;2.28;;;;;;;21.78;42.96;100822.28;5062360;28;20444;-64
2022/01/02 09:56:00;;;;;;;3.83;1.90;;;;;;;21.70;42.72;100805.50;5057232;28;20036;-64
2022/01/02 09:58:26;;;;;;;2.75;1.90;;;;;;;21.78;42.95;100820.47;5063966;28;20033;-65
2022/01/02 10:00:53;;;;;;;4.43;2.15;;;;;;;21.67;43.15;100819.13;5064209;28;20040;-65
2022/01/02 10:03:19;;;;;;;4.43;2.55;;;;;;;21.68;43.13;100812.81;5064792;28;20390;-65
2022/01/02 10:06:01;;;;;;;4.40;2.20;;;;;;;21.65;43.02;100802.63;5061253;28;20150;-65
2022/01/02 10:08:31;;;;;;;4.50;2.33;;;;;;;21.59;43.35;100799.94;5064247;28;20036;-65
2022/01/02 10:11:10;;;;;;;2.88;2.20;;;;;;;21.55;43.17;100794.19;5059055;28;20032;-65
2022/01/02 10:13:43;;;;;;;3.63;2.22;;;;;;;21.61;43.08;100806.66;5063810;28;20068;-64
2022/01/02 10:16:39;;;;;;;3.63;2.13;;;;;;;21.59;43.01;100784.84;5062347;28;20088;-64
2022/01/02 10:19:20;;;;;;;2.95;1.83;;;;;;;21.57;43.28;100780.75;5061072;28;20243;-64
2022/01/02 10:21:58;;;;;;;3.47;2.20;;;;;;;21.69;42.68;100787.16;5056248;28;20119;-65
2022/01/02 10:24:28;;;;;;;3.72;2.50;;;;;;;21.65;42.95;100781.41;5062121;28;20041;-64
2022/01/02 10:27:06;;;;;;;2.60;2.00;;;;;;;21.59;43.17;100776.91;5060483;28;20456;-64
2022/01/02 10:29:54;;;;;;;2.88;2.38;;;;;;;21.61;42.92;100779.34;5063838;28;20043;-64
2022/01/02 10:32:32;;;;;;;2.33;1.90;;;;;;;21.57;43.11;100770.16;5059335;28;20395;-64
2022/01/02 10:35:13;;;;;;;3.17;2.20;;;;;;;21.55;43.00;100764.22;5062574;28;20083;-65
2022/01/02 10:37:40;;;;;;;3.25;2.00;;;;;;;21.49;42.99;100759.69;5058407;28;20068;-64
2022/01/02 10:40:31;;;;;;;4.68;2.28;;;;;;;21.47;43.14;100762.53;5061373;28;20068;-65
2022/01/02 10:42:58;;;;;;;3.05;2.28;;;;;;;21.53;43.29;100768.88;5053590;28;20855;-65
2022/01/02 10:45:34;;;;;;;4.85;2.20;;;;;;;21.49;43.34;100760.50;5058934;28;20451;-64
2022/01/02 10:48:00;;;;;;;3.97;2.50;;;;;;;21.44;43.16;100759.44;5058263;28;20051;-64
2022/01/02 10:50:26;;;;;;;3.92;2.67;;;;;;;21.46;43.05;100771.50;5055236;28;20418;-65
2022/01/02 10:52:52;;;;;;;3.97;2.30;;;;;;;21.49;43.07;100772.94;5059469;28;20041;-64
2022/01/02 10:55:21;;;;;;;3.08;2.55;;;;;;;21.50;42.91;100767.44;5055240;28;20040;-65
2022/01/02 10:57:51;;;;;;;3.53;2.30;;;;;;;21.47;43.25;100765.19;5060167;28;20051;-65
2022/01/02 11:00:19;;;;;;;3.67;2.30;;;;;;;21.48;43.00;100761.50;5045689;28;20410;-64
2022/01/02 11:02:45;;;;;;;4.43;2.50;;;;;;;21.59;43.08;100754.88;5057437;28;20165;-65
2022/01/02 11:05:12;;;;;;;3.20;2.42;;;;;;;21.62;42.77;100751.84;5056731;28;20037;-65
2022/01/02 11:07:43;;;;;;;3.47;2.22;;;;;;;21.58;42.73;100753.25;5055515;28;20064;-65
2022/01/02 11:10:11;;;;;;;4.82;2.50;;;;;;;21.55;42.88;100746.50;5054501;28;20071;-65
2022/01/02 11:12:38;;;;;;;4.18;2.55;;;;;;;21.66;42.98;100753.09;5053098;28;20396;-65
2022/01/02 11:15:07;;;;;;;3.35;2.53;;;;;;;21.52;43.04;100730.97;5053638;28;20040;-65
2022/01/02 11:17:35;;;;;;;3.40;2.15;;;;;;;21.50;43.35;100745.41;5057253;28;20032;-65
2022/01/02 11:20:06;;;;;;;3.55;2.50;;;;;;;21.51;43.35;100747.06;5054911;28;20050;-65
2022/01/02 11:22:39;;;;;;;3.60;2.50;;;;;;;21.46;43.44;100746.81;5059463;28;20032;-65
2022/01/02 11:25:29;;;;;;;3.28;2.47;;;;;;;21.48;43.04;100735.03;5055744;28;20646;-64
2022/01/02 11:28:00;;;;;;;3.47;2.50;;;;;;;21.63;42.85;100729.63;5044393;28;20049;-66
2022/01/02 11:30:28;;;;;;;3.03;2.30;;;;;;;21.66;42.67;100730.06;5061163;28;20056;-65
2022/01/02 11:33:13;;;;;;;4.00;2.60;;;;;;;21.59;42.86;100731.84;5052031;28;20090;-65
2022/01/02 11:35:42;;;;;;;2.92;2.40;;;;;;;21.58;42.95;100740.00;5061410;28;20035;-64
2022/01/02 11:38:09;;;;;;;3.85;2.50;;;;;;;21.54;42.81;100730.78;5060739;28;20067;-65
2022/01/02 11:40:53;;;;;;;6.05;2.63;;;;;;;21.62;42.75;100728.81;5057099;28;20124;-64